sensor_id;sensor_type;location;lat;lon;timestamp;P1;durP1;ratioP1;P2;durP2;ratioP2
27612;SDS011;15036;48.094;-1.690;2022-11-20T00:01:32;13.25;;;8.00;;
27612;SDS011;15036;48.094;-1.690;2022-11-20T00:03:58;12.80;;;8.20;;
27612;SDS011;15036;48.094;-1.690;2022-11-20T00:06:24;11.48;;;7.93;;
27612;SDS011;15036;48.094;-1.690;2022-11-20T00:08:51;14.05;;;7.22;;
27612;SDS011;15036;48.094;-1.690;2022-11-20T00:11:20;11.48;;;7.00;;
27612;SDS011;15036;48.094;-1.690;2022-11-20T00:13:48;11.05;;;6.80;;
27612;SDS011;15036;48.094;-1.690;2022-11-20T00:16:16;15.43;;;8.13;;
27612;SDS011;15036;48.094;-1.690;2022-11-20T00:18:43;19.65;;;11.60;;
27612;SDS011;15036;48.094;-1.690;2022-11-20T00:21:13;16.30;;;8.90;;
27612;SDS011;15036;48.094;-1.690;2022-11-20T00:23:41;14.60;;;7.40;;
27612;SDS011;15036;48.094;-1.690;2022-11-20T00:26:08;15.27;;;8.15;;
27612;SDS011;15036;48.094;-1.690;2022-11-20T00:28:36;12.43;;;7.22;;
27612;SDS011;15036;48.094;-1.690;2022-11-20T00:31:08;11.52;;;6.50;;
27612;SDS011;15036;48.094;-1.690;2022-11-20T00:33:35;12.73;;;6.90;;
27612;SDS011;15036;48.094;-1.690;2022-11-20T00:36:02;13.68;;;6.30;;
27612;SDS011;15036;48.094;-1.690;2022-11-20T00:38:29;12.30;;;7.30;;
27612;SDS011;15036;48.094;-1.690;2022-11-20T00:40:58;14.65;;;6.68;;
27612;SDS011;15036;48.094;-1.690;2022-11-20T00:43:24;10.48;;;6.40;;
27612;SDS011;15036;48.094;-1.690;2022-11-20T00:45:50;10.43;;;6.00;;
27612;SDS011;15036;48.094;-1.690;2022-11-20T00:48:16;11.00;;;5.88;;
27612;SDS011;15036;48.094;-1.690;2022-11-20T00:50:41;9.98;;;5.88;;
27612;SDS011;15036;48.094;-1.690;2022-11-20T00:53:07;10.30;;;5.90;;
27612;SDS011;15036;48.094;-1.690;2022-11-20T00:55:32;12.82;;;6.25;;
27612;SDS011;15036;48.094;-1.690;2022-11-20T00:57:57;9.82;;;5.50;;
27612;SDS011;15036;48.094;-1.690;2022-11-20T01:00:23;11.68;;;5.47;;
27612;SDS011;15036;48.094;-1.690;2022-11-20T01:02:48;10.32;;;5.20;;
27612;SDS011;15036;48.094;-1.690;2022-11-20T01:05:13;10.13;;;5.25;;
27612;SDS011;15036;48.094;-1.690;2022-11-20T01:07:39;10.98;;;5.20;;
27612;SDS011;15036;48.094;-1.690;2022-11-20T01:10:04;7.15;;;4.00;;
27612;SDS011;15036;48.094;-1.690;2022-11-20T01:12:30;7.38;;;4.68;;
27612;SDS011;15036;48.094;-1.690;2022-11-20T01:14:55;8.57;;;4.43;;
27612;SDS011;15036;48.094;-1.690;2022-11-20T01:17:21;9.43;;;5.13;;
27612;SDS011;15036;48.094;-1.690;2022-11-20T01:19:48;11.27;;;5.85;;
27612;SDS011;15036;48.094;-1.690;2022-11-20T01:22:15;10.00;;;5.68;;
27612;SDS011;15036;48.094;-1.690;2022-11-20T01:24:40;13.77;;;5.22;;
27612;SDS011;15036;48.094;-1.690;2022-11-20T01:27:06;7.55;;;4.22;;
27612;SDS011;15036;48.094;-1.690;2022-11-20T01:29:31;10.77;;;5.50;;
27612;SDS011;15036;48.094;-1.690;2022-11-20T01:31:56;9.63;;;4.57;;
27612;SDS011;15036;48.094;-1.690;2022-11-20T01:34:22;8.15;;;4.82;;
27612;SDS011;15036;48.094;-1.690;2022-11-20T01:36:48;6.55;;;4.53;;
27612;SDS011;15036;48.094;-1.690;2022-11-20T01:39:18;9.15;;;5.10;;
27612;SDS011;15036;48.094;-1.690;2022-11-20T01:41:47;11.48;;;5.88;;
27612;SDS011;15036;48.094;-1.690;2022-11-20T01:44:49;9.02;;;5.20;;
27612;SDS011;15036;48.094;-1.690;2022-11-20T01:52:40;11.05;;;5.40;;
27612;SDS011;15036;48.094;-1.690;2022-11-20T01:55:12;11.40;;;5.88;;
27612;SDS011;15036;48.094;-1.690;2022-11-20T01:57:40;9.82;;;5.07;;
27612;SDS011;15036;48.094;-1.690;2022-11-20T02:00:07;9.13;;;5.18;;
27612;SDS011;15036;48.094;-1.690;2022-11-20T02:02:35;10.07;;;5.05;;
27612;SDS011;15036;48.094;-1.690;2022-11-20T02:05:05;11.75;;;4.68;;
27612;SDS011;15036;48.094;-1.690;2022-11-20T02:07:39;6.97;;;4.28;;
27612;SDS011;15036;48.094;-1.690;2022-11-20T02:10:05;10.35;;;4.60;;
27612;SDS011;15036;48.094;-1.690;2022-11-20T02:12:31;10.02;;;4.07;;
27612;SDS011;15036;48.094;-1.690;2022-11-20T02:15:15;9.65;;;4.05;;
27612;SDS011;15036;48.094;-1.690;2022-11-20T02:17:40;7.57;;;4.05;;
27612;SDS011;15036;48.094;-1.690;2022-11-20T02:20:06;7.28;;;3.95;;
27612;SDS011;15036;48.094;-1.690;2022-11-20T02:22:35;10.40;;;4.05;;
27612;SDS011;15036;48.094;-1.690;2022-11-20T02:25:08;11.13;;;4.30;;
27612;SDS011;15036;48.094;-1.690;2022-11-20T02:27:34;10.13;;;4.20;;
27612;SDS011;15036;48.094;-1.690;2022-11-20T02:30:01;9.57;;;3.67;;
27612;SDS011;15036;48.094;-1.690;2022-11-20T02:32:30;9.15;;;3.78;;
27612;SDS011;15036;48.094;-1.690;2022-11-20T02:35:09;7.07;;;3.70;;
27612;SDS011;15036;48.094;-1.690;2022-11-20T02:37:56;9.48;;;3.90;;
27612;SDS011;15036;48.094;-1.690;2022-11-20T02:40:24;9.90;;;4.22;;
27612;SDS011;15036;48.094;-1.690;2022-11-20T02:42:53;10.20;;;4.28;;
27612;SDS011;15036;48.094;-1.690;2022-11-20T02:45:22;7.65;;;3.83;;
27612;SDS011;15036;48.094;-1.690;2022-11-20T02:47:48;7.97;;;3.58;;
27612;SDS011;15036;48.094;-1.690;2022-11-20T02:50:14;9.18;;;3.60;;
27612;SDS011;15036;48.094;-1.690;2022-11-20T02:52:39;8.02;;;3.40;;
27612;SDS011;15036;48.094;-1.690;2022-11-20T02:55:05;9.45;;;3.80;;
27612;SDS011;15036;48.094;-1.690;2022-11-20T02:57:31;10.77;;;4.03;;
27612;SDS011;15036;48.094;-1.690;2022-11-20T02:59:56;10.75;;;3.83;;
27612;SDS011;15036;48.094;-1.690;2022-11-20T03:02:22;9.20;;;3.70;;
27612;SDS011;15036;48.094;-1.690;2022-11-20T03:04:47;7.75;;;3.90;;
27612;SDS011;15036;48.094;-1.690;2022-11-20T03:07:12;8.43;;;3.97;;
27612;SDS011;15036;48.094;-1.690;2022-11-20T03:09:38;6.90;;;3.72;;
27612;SDS011;15036;48.094;-1.690;2022-11-20T03:12:03;8.07;;;4.00;;
27612;SDS011;15036;48.094;-1.690;2022-11-20T03:14:29;9.95;;;4.15;;
27612;SDS011;15036;48.094;-1.690;2022-11-20T03:16:55;8.77;;;4.13;;
27612;SDS011;15036;48.094;-1.690;2022-11-20T03:19:20;9.88;;;4.28;;
27612;SDS011;15036;48.094;-1.690;2022-11-20T03:21:46;7.63;;;3.67;;
27612;SDS011;15036;48.094;-1.690;2022-11-20T03:24:13;9.43;;;3.78;;
27612;SDS011;15036;48.094;-1.690;2022-11-20T03:26:39;7.13;;;3.83;;
27612;SDS011;15036;48.094;-1.690;2022-11-20T03:29:05;6.88;;;3.80;;
27612;SDS011;15036;48.094;-1.690;2022-11-20T03:31:32;11.73;;;3.88;;
27612;SDS011;15036;48.094;-1.690;2022-11-20T03:34:00;7.43;;;3.63;;
27612;SDS011;15036;48.094;-1.690;2022-11-20T03:36:25;11.82;;;4.10;;
27612;SDS011;15036;48.094;-1.690;2022-11-20T03:38:52;7.05;;;3.65;;
27612;SDS011;15036;48.094;-1.690;2022-11-20T03:41:22;8.13;;;4.30;;
27612;SDS011;15036;48.094;-1.690;2022-11-20T03:43:54;9.32;;;3.90;;
27612;SDS011;15036;48.094;-1.690;2022-11-20T03:46:20;7.25;;;4.13;;
27612;SDS011;15036;48.094;-1.690;2022-11-20T03:48:46;7.15;;;3.97;;
27612;SDS011;15036;48.094;-1.690;2022-11-20T03:51:16;10.13;;;4.25;;
27612;SDS011;15036;48.094;-1.690;2022-11-20T03:56:10;10.63;;;4.80;;
27612;SDS011;15036;48.094;-1.690;2022-11-20T03:58:38;10.90;;;4.18;;
27612;SDS011;15036;48.094;-1.690;2022-11-20T04:01:08;11.25;;;4.57;;
27612;SDS011;15036;48.094;-1.690;2022-11-20T04:03:36;7.65;;;4.60;;
27612;SDS011;15036;48.094;-1.690;2022-11-20T04:06:07;7.43;;;4.13;;
27612;SDS011;15036;48.094;-1.690;2022-11-20T04:08:34;9.00;;;4.55;;
27612;SDS011;15036;48.094;-1.690;2022-11-20T04:11:10;8.27;;;4.57;;
27612;SDS011;15036;48.094;-1.690;2022-11-20T04:13:36;8.65;;;4.57;;
27612;SDS011;15036;48.094;-1.690;2022-11-20T04:16:02;8.43;;;5.03;;
27612;SDS011;15036;48.094;-1.690;2022-11-20T04:18:27;10.95;;;5.60;;
27612;SDS011;15036;48.094;-1.690;2022-11-20T04:20:53;10.57;;;6.32;;
27612;SDS011;15036;48.094;-1.690;2022-11-20T04:23:18;9.82;;;5.97;;
27612;SDS011;15036;48.094;-1.690;2022-11-20T04:25:43;10.50;;;6.40;;
27612;SDS011;15036;48.094;-1.690;2022-11-20T04:28:09;10.43;;;6.03;;
27612;SDS011;15036;48.094;-1.690;2022-11-20T04:30:34;9.95;;;5.80;;
27612;SDS011;15036;48.094;-1.690;2022-11-20T04:33:00;8.15;;;5.60;;
27612;SDS011;15036;48.094;-1.690;2022-11-20T04:35:25;11.75;;;6.18;;
27612;SDS011;15036;48.094;-1.690;2022-11-20T04:37:51;8.13;;;5.80;;
27612;SDS011;15036;48.094;-1.690;2022-11-20T04:40:17;11.68;;;6.07;;
27612;SDS011;15036;48.094;-1.690;2022-11-20T04:42:42;10.27;;;5.90;;
27612;SDS011;15036;48.094;-1.690;2022-11-20T04:45:07;13.05;;;6.28;;
27612;SDS011;15036;48.094;-1.690;2022-11-20T04:47:33;10.00;;;6.15;;
27612;SDS011;15036;48.094;-1.690;2022-11-20T04:49:58;10.40;;;6.05;;
27612;SDS011;15036;48.094;-1.690;2022-11-20T04:52:24;11.07;;;6.80;;
27612;SDS011;15036;48.094;-1.690;2022-11-20T04:54:49;8.63;;;6.28;;
27612;SDS011;15036;48.094;-1.690;2022-11-20T04:57:17;10.65;;;6.95;;
27612;SDS011;15036;48.094;-1.690;2022-11-20T04:59:43;11.57;;;7.10;;
27612;SDS011;15036;48.094;-1.690;2022-11-20T05:02:08;9.70;;;6.78;;
27612;SDS011;15036;48.094;-1.690;2022-11-20T05:04:34;9.65;;;6.50;;
27612;SDS011;15036;48.094;-1.690;2022-11-20T05:07:00;8.68;;;6.60;;
27612;SDS011;15036;48.094;-1.690;2022-11-20T05:09:25;12.38;;;7.38;;
27612;SDS011;15036;48.094;-1.690;2022-11-20T05:11:50;11.75;;;7.70;;
27612;SDS011;15036;48.094;-1.690;2022-11-20T05:14:16;11.00;;;7.50;;
27612;SDS011;15036;48.094;-1.690;2022-11-20T05:16:41;12.45;;;7.70;;
27612;SDS011;15036;48.094;-1.690;2022-11-20T05:19:06;9.48;;;7.78;;
27612;SDS011;15036;48.094;-1.690;2022-11-20T05:21:32;12.95;;;8.18;;
27612;SDS011;15036;48.094;-1.690;2022-11-20T05:23:57;10.05;;;8.13;;
27612;SDS011;15036;48.094;-1.690;2022-11-20T05:26:23;14.60;;;9.00;;
27612;SDS011;15036;48.094;-1.690;2022-11-20T05:28:49;10.05;;;8.38;;
27612;SDS011;15036;48.094;-1.690;2022-11-20T05:31:17;11.88;;;8.40;;
27612;SDS011;15036;48.094;-1.690;2022-11-20T05:33:44;11.07;;;8.70;;
27612;SDS011;15036;48.094;-1.690;2022-11-20T05:36:11;10.75;;;7.53;;
27612;SDS011;15036;48.094;-1.690;2022-11-20T05:38:38;12.63;;;7.70;;
27612;SDS011;15036;48.094;-1.690;2022-11-20T05:41:08;9.40;;;7.07;;
27612;SDS011;15036;48.094;-1.690;2022-11-20T05:43:42;10.98;;;7.22;;
27612;SDS011;15036;48.094;-1.690;2022-11-20T05:46:10;11.95;;;7.55;;
27612;SDS011;15036;48.094;-1.690;2022-11-20T05:48:38;8.10;;;7.10;;
27612;SDS011;15036;48.094;-1.690;2022-11-20T05:51:05;9.48;;;6.43;;
27612;SDS011;15036;48.094;-1.690;2022-11-20T05:53:33;7.88;;;5.65;;
27612;SDS011;15036;48.094;-1.690;2022-11-20T05:56:01;7.15;;;5.60;;
27612;SDS011;15036;48.094;-1.690;2022-11-20T05:58:28;7.38;;;5.32;;
27612;SDS011;15036;48.094;-1.690;2022-11-20T06:00:58;7.55;;;5.38;;
27612;SDS011;15036;48.094;-1.690;2022-11-20T06:03:39;5.63;;;5.03;;
27612;SDS011;15036;48.094;-1.690;2022-11-20T06:06:05;6.65;;;5.78;;
27612;SDS011;15036;48.094;-1.690;2022-11-20T06:08:32;9.27;;;6.88;;
27612;SDS011;15036;48.094;-1.690;2022-11-20T06:10:57;8.77;;;7.30;;
27612;SDS011;15036;48.094;-1.690;2022-11-20T06:13:23;8.48;;;6.57;;
27612;SDS011;15036;48.094;-1.690;2022-11-20T06:15:49;6.07;;;5.20;;
27612;SDS011;15036;48.094;-1.690;2022-11-20T06:18:15;8.25;;;5.50;;
27612;SDS011;15036;48.094;-1.690;2022-11-20T06:20:41;7.35;;;5.30;;
27612;SDS011;15036;48.094;-1.690;2022-11-20T06:23:06;5.57;;;4.43;;
27612;SDS011;15036;48.094;-1.690;2022-11-20T06:25:32;7.50;;;4.63;;
27612;SDS011;15036;48.094;-1.690;2022-11-20T06:27:57;5.45;;;4.32;;
27612;SDS011;15036;48.094;-1.690;2022-11-20T06:30:22;5.10;;;4.35;;
27612;SDS011;15036;48.094;-1.690;2022-11-20T06:32:48;4.65;;;4.13;;
27612;SDS011;15036;48.094;-1.690;2022-11-20T06:35:13;4.10;;;3.45;;
27612;SDS011;15036;48.094;-1.690;2022-11-20T06:37:39;3.40;;;2.75;;
27612;SDS011;15036;48.094;-1.690;2022-11-20T06:40:04;3.35;;;2.95;;
27612;SDS011;15036;48.094;-1.690;2022-11-20T06:42:30;3.90;;;3.40;;
27612;SDS011;15036;48.094;-1.690;2022-11-20T06:44:55;4.35;;;3.40;;
27612;SDS011;15036;48.094;-1.690;2022-11-20T06:47:21;4.30;;;3.20;;
27612;SDS011;15036;48.094;-1.690;2022-11-20T06:49:46;3.60;;;2.78;;
27612;SDS011;15036;48.094;-1.690;2022-11-20T06:52:12;3.40;;;2.75;;
27612;SDS011;15036;48.094;-1.690;2022-11-20T06:54:37;3.92;;;3.40;;
27612;SDS011;15036;48.094;-1.690;2022-11-20T06:57:02;4.40;;;3.50;;
27612;SDS011;15036;48.094;-1.690;2022-11-20T06:59:28;4.05;;;3.40;;
27612;SDS011;15036;48.094;-1.690;2022-11-20T07:01:53;4.32;;;3.45;;
27612;SDS011;15036;48.094;-1.690;2022-11-20T07:04:18;4.03;;;3.58;;
27612;SDS011;15036;48.094;-1.690;2022-11-20T07:06:44;4.68;;;3.75;;
27612;SDS011;15036;48.094;-1.690;2022-11-20T07:09:09;5.35;;;4.07;;
27612;SDS011;15036;48.094;-1.690;2022-11-20T07:11:34;4.20;;;3.80;;
27612;SDS011;15036;48.094;-1.690;2022-11-20T07:14:00;5.18;;;4.10;;
27612;SDS011;15036;48.094;-1.690;2022-11-20T07:16:25;4.90;;;3.97;;
27612;SDS011;15036;48.094;-1.690;2022-11-20T07:18:51;5.07;;;4.57;;
27612;SDS011;15036;48.094;-1.690;2022-11-20T07:21:16;6.57;;;5.90;;
27612;SDS011;15036;48.094;-1.690;2022-11-20T07:23:42;7.95;;;7.10;;
27612;SDS011;15036;48.094;-1.690;2022-11-20T07:26:08;7.50;;;6.13;;
27612;SDS011;15036;48.094;-1.690;2022-11-20T07:28:35;8.23;;;6.95;;
27612;SDS011;15036;48.094;-1.690;2022-11-20T07:31:01;6.70;;;5.20;;
27612;SDS011;15036;48.094;-1.690;2022-11-20T07:33:26;5.78;;;4.68;;
27612;SDS011;15036;48.094;-1.690;2022-11-20T07:35:52;5.10;;;4.03;;
27612;SDS011;15036;48.094;-1.690;2022-11-20T07:38:17;5.38;;;4.70;;
27612;SDS011;15036;48.094;-1.690;2022-11-20T07:40:43;6.15;;;5.20;;
27612;SDS011;15036;48.094;-1.690;2022-11-20T07:43:08;5.68;;;4.30;;
27612;SDS011;15036;48.094;-1.690;2022-11-20T07:45:34;7.45;;;5.45;;
27612;SDS011;15036;48.094;-1.690;2022-11-20T07:47:59;5.78;;;4.88;;
27612;SDS011;15036;48.094;-1.690;2022-11-20T07:50:25;4.90;;;3.67;;
27612;SDS011;15036;48.094;-1.690;2022-11-20T07:52:50;8.48;;;4.95;;
27612;SDS011;15036;48.094;-1.690;2022-11-20T07:55:17;9.73;;;5.47;;
27612;SDS011;15036;48.094;-1.690;2022-11-20T07:57:42;7.47;;;5.65;;
27612;SDS011;15036;48.094;-1.690;2022-11-20T08:00:08;8.48;;;6.20;;
27612;SDS011;15036;48.094;-1.690;2022-11-20T08:02:41;6.82;;;5.13;;
27612;SDS011;15036;48.094;-1.690;2022-11-20T08:05:08;7.43;;;5.30;;
27612;SDS011;15036;48.094;-1.690;2022-11-20T08:07:38;7.72;;;5.00;;
27612;SDS011;15036;48.094;-1.690;2022-11-20T08:10:04;7.05;;;5.05;;
27612;SDS011;15036;48.094;-1.690;2022-11-20T08:12:31;6.82;;;5.13;;
27612;SDS011;15036;48.094;-1.690;2022-11-20T08:15:28;7.05;;;5.38;;
27612;SDS011;15036;48.094;-1.690;2022-11-20T08:18:01;6.90;;;4.40;;
27612;SDS011;15036;48.094;-1.690;2022-11-20T08:20:26;7.97;;;5.13;;
27612;SDS011;15036;48.094;-1.690;2022-11-20T08:22:52;7.53;;;4.50;;
27612;SDS011;15036;48.094;-1.690;2022-11-20T08:25:17;8.30;;;4.53;;
27612;SDS011;15036;48.094;-1.690;2022-11-20T08:27:43;7.72;;;5.45;;
27612;SDS011;15036;48.094;-1.690;2022-11-20T08:30:08;6.07;;;4.65;;
27612;SDS011;15036;48.094;-1.690;2022-11-20T08:32:34;11.40;;;4.50;;
27612;SDS011;15036;48.094;-1.690;2022-11-20T08:35:02;8.40;;;4.10;;
27612;SDS011;15036;48.094;-1.690;2022-11-20T08:37:29;10.65;;;3.85;;
27612;SDS011;15036;48.094;-1.690;2022-11-20T08:39:54;11.50;;;4.05;;
27612;SDS011;15036;48.094;-1.690;2022-11-20T08:42:21;11.10;;;3.83;;
27612;SDS011;15036;48.094;-1.690;2022-11-20T08:44:47;11.93;;;3.58;;
27612;SDS011;15036;48.094;-1.690;2022-11-20T08:47:13;10.43;;;3.00;;
27612;SDS011;15036;48.094;-1.690;2022-11-20T08:49:38;16.88;;;3.55;;
27612;SDS011;15036;48.094;-1.690;2022-11-20T08:52:03;15.32;;;3.42;;
27612;SDS011;15036;48.094;-1.690;2022-11-20T08:54:29;16.92;;;7.40;;
27612;SDS011;15036;48.094;-1.690;2022-11-20T08:56:54;23.33;;;4.38;;
27612;SDS011;15036;48.094;-1.690;2022-11-20T08:59:19;16.77;;;3.92;;
27612;SDS011;15036;48.094;-1.690;2022-11-20T09:01:45;21.45;;;4.72;;
27612;SDS011;15036;48.094;-1.690;2022-11-20T09:04:10;23.00;;;3.97;;
27612;SDS011;15036;48.094;-1.690;2022-11-20T09:06:36;23.90;;;6.72;;
27612;SDS011;15036;48.094;-1.690;2022-11-20T09:09:02;26.20;;;6.68;;
27612;SDS011;15036;48.094;-1.690;2022-11-20T09:11:27;27.55;;;6.00;;
27612;SDS011;15036;48.094;-1.690;2022-11-20T09:13:52;25.83;;;5.05;;
27612;SDS011;15036;48.094;-1.690;2022-11-20T09:16:18;33.85;;;6.00;;
27612;SDS011;15036;48.094;-1.690;2022-11-20T09:18:43;28.13;;;6.05;;
27612;SDS011;15036;48.094;-1.690;2022-11-20T09:21:09;29.13;;;5.63;;
27612;SDS011;15036;48.094;-1.690;2022-11-20T09:23:36;30.92;;;6.25;;
27612;SDS011;15036;48.094;-1.690;2022-11-20T09:26:03;30.77;;;6.97;;
27612;SDS011;15036;48.094;-1.690;2022-11-20T09:28:30;31.80;;;6.95;;
27612;SDS011;15036;48.094;-1.690;2022-11-20T09:30:56;38.97;;;7.60;;
27612;SDS011;15036;48.094;-1.690;2022-11-20T09:33:22;40.58;;;7.20;;
27612;SDS011;15036;48.094;-1.690;2022-11-20T09:35:47;37.70;;;7.63;;
27612;SDS011;15036;48.094;-1.690;2022-11-20T09:38:12;39.33;;;6.40;;
27612;SDS011;15036;48.094;-1.690;2022-11-20T09:41:02;35.55;;;5.82;;
27612;SDS011;15036;48.094;-1.690;2022-11-20T09:43:37;34.63;;;8.77;;
27612;SDS011;15036;48.094;-1.690;2022-11-20T09:46:41;44.10;;;7.68;;
27612;SDS011;15036;48.094;-1.690;2022-11-20T09:52:22;37.17;;;6.97;;
27612;SDS011;15036;48.094;-1.690;2022-11-20T09:55:10;34.30;;;6.50;;
27612;SDS011;15036;48.094;-1.690;2022-11-20T09:57:38;32.80;;;6.72;;
27612;SDS011;15036;48.094;-1.690;2022-11-20T10:00:09;42.55;;;7.00;;
27612;SDS011;15036;48.094;-1.690;2022-11-20T10:08:25;42.60;;;8.00;;
27612;SDS011;15036;48.094;-1.690;2022-11-20T10:16:41;41.63;;;9.05;;
27612;SDS011;15036;48.094;-1.690;2022-11-20T10:24:43;45.42;;;7.38;;
27612;SDS011;15036;48.094;-1.690;2022-11-20T10:30:10;36.55;;;6.90;;
27612;SDS011;15036;48.094;-1.690;2022-11-20T10:32:39;41.45;;;6.95;;
27612;SDS011;15036;48.094;-1.690;2022-11-20T10:35:15;37.67;;;8.00;;
27612;SDS011;15036;48.094;-1.690;2022-11-20T10:37:46;38.78;;;6.70;;
27612;SDS011;15036;48.094;-1.690;2022-11-20T10:42:51;33.08;;;6.25;;
27612;SDS011;15036;48.094;-1.690;2022-11-20T10:47:49;34.70;;;7.18;;
27612;SDS011;15036;48.094;-1.690;2022-11-20T10:50:18;32.58;;;7.22;;
27612;SDS011;15036;48.094;-1.690;2022-11-20T10:55:37;43.08;;;13.05;;
27612;SDS011;15036;48.094;-1.690;2022-11-20T10:58:22;30.45;;;6.07;;
27612;SDS011;15036;48.094;-1.690;2022-11-20T11:01:15;33.33;;;5.97;;
27612;SDS011;15036;48.094;-1.690;2022-11-20T11:03:47;31.77;;;6.30;;
27612;SDS011;15036;48.094;-1.690;2022-11-20T11:06:29;32.38;;;5.80;;
27612;SDS011;15036;48.094;-1.690;2022-11-20T11:09:02;33.05;;;6.30;;
27612;SDS011;15036;48.094;-1.690;2022-11-20T11:11:35;35.13;;;6.22;;
27612;SDS011;15036;48.094;-1.690;2022-11-20T11:14:07;29.50;;;5.53;;
27612;SDS011;15036;48.094;-1.690;2022-11-20T11:16:34;33.83;;;6.68;;
27612;SDS011;15036;48.094;-1.690;2022-11-20T11:19:06;24.70;;;5.45;;
27612;SDS011;15036;48.094;-1.690;2022-11-20T11:21:38;28.05;;;5.25;;
27612;SDS011;15036;48.094;-1.690;2022-11-20T11:24:18;33.03;;;6.18;;
27612;SDS011;15036;48.094;-1.690;2022-11-20T11:26:56;30.17;;;5.78;;
27612;SDS011;15036;48.094;-1.690;2022-11-20T11:29:22;36.22;;;6.45;;
27612;SDS011;15036;48.094;-1.690;2022-11-20T11:31:48;33.50;;;6.85;;
27612;SDS011;15036;48.094;-1.690;2022-11-20T11:34:14;28.48;;;5.97;;
27612;SDS011;15036;48.094;-1.690;2022-11-20T11:36:41;28.58;;;5.05;;
27612;SDS011;15036;48.094;-1.690;2022-11-20T11:39:18;21.83;;;4.93;;
27612;SDS011;15036;48.094;-1.690;2022-11-20T11:41:46;25.88;;;4.60;;
27612;SDS011;15036;48.094;-1.690;2022-11-20T11:44:16;30.45;;;6.28;;
27612;SDS011;15036;48.094;-1.690;2022-11-20T11:47:26;30.27;;;5.00;;
27612;SDS011;15036;48.094;-1.690;2022-11-20T11:52:56;25.83;;;4.65;;
27612;SDS011;15036;48.094;-1.690;2022-11-20T11:55:39;21.83;;;4.75;;
27612;SDS011;15036;48.094;-1.690;2022-11-20T12:00:58;21.15;;;4.68;;
27612;SDS011;15036;48.094;-1.690;2022-11-20T12:03:29;24.50;;;5.07;;
27612;SDS011;15036;48.094;-1.690;2022-11-20T12:06:06;21.00;;;4.57;;
27612;SDS011;15036;48.094;-1.690;2022-11-20T12:08:50;20.00;;;4.30;;
27612;SDS011;15036;48.094;-1.690;2022-11-20T12:17:01;18.20;;;4.13;;
27612;SDS011;15036;48.094;-1.690;2022-11-20T12:19:31;17.75;;;3.95;;
27612;SDS011;15036;48.094;-1.690;2022-11-20T12:24:36;21.65;;;4.30;;
27612;SDS011;15036;48.094;-1.690;2022-11-20T12:27:27;20.77;;;4.78;;
27612;SDS011;15036;48.094;-1.690;2022-11-20T12:30:02;20.83;;;4.68;;
27612;SDS011;15036;48.094;-1.690;2022-11-20T12:47:47;23.98;;;5.20;;
27612;SDS011;15036;48.094;-1.690;2022-11-20T12:58:48;32.08;;;5.18;;
27612;SDS011;15036;48.094;-1.690;2022-11-20T13:01:45;25.67;;;5.38;;
27612;SDS011;15036;48.094;-1.690;2022-11-20T13:07:01;25.25;;;4.80;;
27612;SDS011;15036;48.094;-1.690;2022-11-20T13:09:28;25.02;;;5.35;;
27612;SDS011;15036;48.094;-1.690;2022-11-20T13:14:52;20.92;;;4.50;;
27612;SDS011;15036;48.094;-1.690;2022-11-20T13:17:20;24.42;;;5.03;;
27612;SDS011;15036;48.094;-1.690;2022-11-20T13:19:51;19.05;;;4.43;;
27612;SDS011;15036;48.094;-1.690;2022-11-20T13:22:29;19.95;;;4.57;;
27612;SDS011;15036;48.094;-1.690;2022-11-20T13:25:30;19.92;;;4.40;;
27612;SDS011;15036;48.094;-1.690;2022-11-20T13:27:57;17.73;;;4.00;;
27612;SDS011;15036;48.094;-1.690;2022-11-20T13:30:24;18.33;;;3.50;;
27612;SDS011;15036;48.094;-1.690;2022-11-20T13:33:08;20.55;;;4.50;;
27612;SDS011;15036;48.094;-1.690;2022-11-20T13:35:54;15.05;;;3.97;;
27612;SDS011;15036;48.094;-1.690;2022-11-20T13:38:21;23.55;;;4.55;;
27612;SDS011;15036;48.094;-1.690;2022-11-20T13:43:40;16.58;;;4.13;;
27612;SDS011;15036;48.094;-1.690;2022-11-20T13:46:06;22.08;;;4.05;;
27612;SDS011;15036;48.094;-1.690;2022-11-20T13:48:34;22.00;;;4.18;;
27612;SDS011;15036;48.094;-1.690;2022-11-20T14:02:18;13.93;;;4.30;;
27612;SDS011;15036;48.094;-1.690;2022-11-20T14:04:47;18.25;;;4.35;;
27612;SDS011;15036;48.094;-1.690;2022-11-20T14:07:16;17.48;;;3.78;;
27612;SDS011;15036;48.094;-1.690;2022-11-20T14:09:53;20.52;;;4.60;;
27612;SDS011;15036;48.094;-1.690;2022-11-20T14:12:28;24.10;;;5.75;;
27612;SDS011;15036;48.094;-1.690;2022-11-20T14:14:55;21.15;;;6.03;;
27612;SDS011;15036;48.094;-1.690;2022-11-20T14:17:22;20.30;;;4.53;;
27612;SDS011;15036;48.094;-1.690;2022-11-20T14:19:53;21.50;;;4.97;;
27612;SDS011;15036;48.094;-1.690;2022-11-20T14:22:24;18.65;;;4.07;;
27612;SDS011;15036;48.094;-1.690;2022-11-20T14:25:01;17.00;;;3.72;;
27612;SDS011;15036;48.094;-1.690;2022-11-20T14:27:32;18.13;;;3.85;;
27612;SDS011;15036;48.094;-1.690;2022-11-20T14:30:00;23.40;;;5.28;;
27612;SDS011;15036;48.094;-1.690;2022-11-20T14:32:27;19.08;;;4.57;;
27612;SDS011;15036;48.094;-1.690;2022-11-20T14:34:54;17.38;;;4.15;;
27612;SDS011;15036;48.094;-1.690;2022-11-20T14:37:26;17.75;;;4.32;;
27612;SDS011;15036;48.094;-1.690;2022-11-20T14:39:58;20.30;;;4.90;;
27612;SDS011;15036;48.094;-1.690;2022-11-20T14:42:25;18.92;;;4.47;;
27612;SDS011;15036;48.094;-1.690;2022-11-20T14:44:52;19.23;;;4.32;;
27612;SDS011;15036;48.094;-1.690;2022-11-20T14:47:21;14.40;;;3.95;;
27612;SDS011;15036;48.094;-1.690;2022-11-20T14:49:49;19.88;;;4.07;;
27612;SDS011;15036;48.094;-1.690;2022-11-20T14:52:17;16.88;;;3.90;;
27612;SDS011;15036;48.094;-1.690;2022-11-20T14:54:45;19.80;;;3.92;;
27612;SDS011;15036;48.094;-1.690;2022-11-20T14:57:28;19.40;;;4.20;;
27612;SDS011;15036;48.094;-1.690;2022-11-20T15:02:33;19.65;;;4.20;;
27612;SDS011;15036;48.094;-1.690;2022-11-20T15:04:59;19.15;;;4.50;;
27612;SDS011;15036;48.094;-1.690;2022-11-20T15:10:44;15.02;;;4.10;;
27612;SDS011;15036;48.094;-1.690;2022-11-20T15:12:47;18.75;;;4.32;;
27612;SDS011;15036;48.094;-1.690;2022-11-20T15:15:17;17.02;;;4.18;;
27612;SDS011;15036;48.094;-1.690;2022-11-20T15:18:04;22.25;;;4.32;;
27612;SDS011;15036;48.094;-1.690;2022-11-20T15:20:31;20.58;;;4.00;;
27612;SDS011;15036;48.094;-1.690;2022-11-20T15:22:58;20.05;;;4.18;;
27612;SDS011;15036;48.094;-1.690;2022-11-20T15:25:23;17.70;;;4.40;;
27612;SDS011;15036;48.094;-1.690;2022-11-20T15:27:50;20.63;;;4.32;;
27612;SDS011;15036;48.094;-1.690;2022-11-20T15:30:20;17.13;;;4.35;;
27612;SDS011;15036;48.094;-1.690;2022-11-20T15:32:45;19.27;;;4.25;;
27612;SDS011;15036;48.094;-1.690;2022-11-20T15:35:12;18.17;;;4.13;;
27612;SDS011;15036;48.094;-1.690;2022-11-20T15:37:39;18.05;;;4.38;;
27612;SDS011;15036;48.094;-1.690;2022-11-20T15:40:05;21.77;;;4.60;;
27612;SDS011;15036;48.094;-1.690;2022-11-20T15:42:31;18.75;;;4.53;;
27612;SDS011;15036;48.094;-1.690;2022-11-20T15:44:57;20.15;;;4.30;;
27612;SDS011;15036;48.094;-1.690;2022-11-20T15:47:24;22.10;;;4.53;;
27612;SDS011;15036;48.094;-1.690;2022-11-20T15:49:52;25.70;;;4.85;;
27612;SDS011;15036;48.094;-1.690;2022-11-20T15:52:18;19.27;;;4.43;;
27612;SDS011;15036;48.094;-1.690;2022-11-20T15:54:43;23.80;;;5.05;;
27612;SDS011;15036;48.094;-1.690;2022-11-20T15:57:09;19.55;;;4.78;;
27612;SDS011;15036;48.094;-1.690;2022-11-20T15:59:34;26.17;;;5.00;;
27612;SDS011;15036;48.094;-1.690;2022-11-20T16:02:07;20.98;;;4.88;;
27612;SDS011;15036;48.094;-1.690;2022-11-20T16:04:35;26.40;;;4.90;;
27612;SDS011;15036;48.094;-1.690;2022-11-20T16:07:00;15.65;;;4.10;;
27612;SDS011;15036;48.094;-1.690;2022-11-20T16:09:26;21.27;;;4.55;;
27612;SDS011;15036;48.094;-1.690;2022-11-20T16:11:51;18.30;;;5.15;;
27612;SDS011;15036;48.094;-1.690;2022-11-20T16:14:16;20.98;;;4.30;;
27612;SDS011;15036;48.094;-1.690;2022-11-20T16:17:00;17.77;;;4.60;;